Time;durP1;ratioP1;P1;durP2;ratioP2;P2;SDS_P1;SDS_P2;PMS_P1;PMS_P2;Temp;Humidity;BMP_temperature;BMP_pressure;BME280_temperature;BME280_humidity;BME280_pressure;Samples;Min_cycle;Max_cycle;Signal;HPM_P1;HPM_P2
2022/07/20 00:01:36;;;;;;;4.70;3.22;;;;;;;;;;5004033;28;20052;-87
2022/07/20 00:04:03;;;;;;;5.97;3.50;;;;;;;;;;5017440;28;20044;-87
2022/07/20 00:06:31;;;;;;;5.78;3.20;;;;;;;;;;4989536;28;20074;-87
2022/07/20 00:11:46;;;;;;;5.10;3.03;;;;;;;;;;5024497;28;20590;-87
2022/07/20 00:14:13;;;;;;;5.25;3.03;;;;;;;;;;5004177;28;20040;-87
2022/07/20 00:16:40;;;;;;;5.60;3.30;;;;;;;;;;5032834;28;20040;-87
2022/07/20 00:19:08;;;;;;;4.47;2.95;;;;;;;;;;5019717;28;24296;-87
2022/07/20 00:21:37;;;;;;;6.07;3.08;;;;;;;;;;5017116;28;20044;-87
2022/07/20 00:24:05;;;;;;;5.03;3.13;;;;;;;;;;5010957;28;20296;-87
2022/07/20 00:26:34;;;;;;;6.18;3.33;;;;;;;;;;5020426;28;22402;-87
2022/07/20 00:29:00;;;;;;;5.55;3.42;;;;;;;;;;5013737;28;20036;-87
2022/07/20 00:31:28;;;;;;;5.80;3.38;;;;;;;;;;5032816;28;20041;-87
2022/07/20 00:33:55;;;;;;;5.40;3.40;;;;;;;;;;5030279;28;20037;-87
2022/07/20 00:36:25;;;;;;;7.60;3.63;;;;;;;;;;5017964;28;20032;-88
2022/07/20 00:38:52;;;;;;;5.40;3.22;;;;;;;;;;5028182;28;20040;-87
2022/07/20 00:41:19;;;;;;;5.53;3.42;;;;;;;;;;5018592;28;20056;-87
2022/07/20 00:43:58;;;;;;;5.28;3.42;;;;;;;;;;5019112;28;20127;-87
2022/07/20 00:46:25;;;;;;;4.15;3.30;;;;;;;;;;5032832;28;20529;-87
2022/07/20 00:48:51;;;;;;;3.80;3.42;;;;;;;;;;5029263;28;20044;-87
2022/07/20 00:51:19;;;;;;;6.53;3.92;;;;;;;;;;5019151;28;20105;-87
2022/07/20 00:53:46;;;;;;;4.22;3.03;;;;;;;;;;5015637;28;20119;-87
2022/07/20 00:56:16;;;;;;;6.05;3.90;;;;;;;;;;5019894;28;20495;-87
2022/07/20 00:58:44;;;;;;;4.43;3.17;;;;;;;;;;5036549;28;20041;-87
2022/07/20 01:01:15;;;;;;;3.85;3.28;;;;;;;;;;5030574;28;20075;-88
2022/07/20 01:03:42;;;;;;;3.70;3.33;;;;;;;;;;5004634;28;20068;-87
2022/07/20 01:06:09;;;;;;;4.70;3.67;;;;;;;;;;4998422;28;21986;-87
2022/07/20 01:08:41;;;;;;;7.28;3.65;;;;;;;;;;5036507;28;20495;-87
2022/07/20 01:11:09;;;;;;;5.03;3.28;;;;;;;;;;5030413;28;20060;-87
2022/07/20 01:13:42;;;;;;;5.80;3.63;;;;;;;;;;5032732;28;20051;-87
2022/07/20 01:16:10;;;;;;;6.87;3.30;;;;;;;;;;4996760;28;20163;-87
2022/07/20 01:18:40;;;;;;;7.05;3.38;;;;;;;;;;5003468;28;20311;-87
2022/07/20 01:24:47;;;;;;;3.88;3.47;;;;;;;;;;4975811;28;20119;-87
2022/07/20 01:27:17;;;;;;;3.92;3.40;;;;;;;;;;4958482;28;20140;-87
2022/07/20 01:30:05;;;;;;;7.47;3.72;;;;;;;;;;4956238;28;20084;-87
2022/07/20 01:32:46;;;;;;;;;;;;;;;;;;4975010;28;20092;-87
2022/07/20 01:35:13;;;;;;;6.40;3.50;;;;;;;;;;4939291;28;20541;-86
2022/07/20 01:37:42;;;;;;;5.82;3.33;;;;;;;;;;5036137;28;21822;-87
2022/07/20 01:40:13;;;;;;;3.95;3.13;;;;;;;;;;5024633;28;20078;-87
2022/07/20 01:42:41;;;;;;;5.53;3.70;;;;;;;;;;5025778;28;20097;-87
2022/07/20 01:45:09;;;;;;;4.35;3.53;;;;;;;;;;5030877;28;21152;-86
2022/07/20 01:47:35;;;;;;;5.05;3.50;;;;;;;;;;5021807;28;20450;-87
2022/07/20 01:50:03;;;;;;;4.18;3.55;;;;;;;;;;4994864;28;21870;-86
2022/07/20 01:52:30;;;;;;;5.22;3.90;;;;;;;;;;5020160;28;20092;-87
2022/07/20 01:54:57;;;;;;;6.13;3.50;;;;;;;;;;5028997;28;20040;-87
2022/07/20 01:57:24;;;;;;;5.30;3.50;;;;;;;;;;4998869;28;20052;-86
2022/07/20 01:59:55;;;;;;;3.97;3.53;;;;;;;;;;5014695;28;20137;-87
2022/07/20 02:02:22;;;;;;;4.63;3.65;;;;;;;;;;5031577;28;20039;-86
2022/07/20 02:04:56;;;;;;;3.85;3.55;;;;;;;;;;5015576;28;20040;-87
2022/07/20 02:07:23;;;;;;;5.05;3.90;;;;;;;;;;5005797;28;20043;-86
2022/07/20 02:09:49;;;;;;;5.68;3.70;;;;;;;;;;5009264;28;20048;-86
2022/07/20 02:12:22;;;;;;;6.85;3.80;;;;;;;;;;5040167;28;20117;-87
2022/07/20 02:14:50;;;;;;;5.20;4.10;;;;;;;;;;5000420;28;20119;-86
2022/07/20 02:17:17;;;;;;;5.80;3.85;;;;;;;;;;5041204;28;20035;-87
2022/07/20 02:23:06;;;;;;;6.22;4.25;;;;;;;;;;5058277;28;20120;-87
2022/07/20 02:25:33;;;;;;;6.88;3.45;;;;;;;;;;5004510;28;20136;-87
2022/07/20 02:51:59;;;;;;;6.80;3.55;;;;;;;;;;5038779;22;19932;-87
2022/07/20 02:54:25;;;;;;;5.80;4.00;;;;;;;;;;4963563;28;20822;-87
2022/07/20 02:56:51;;;;;;;5.10;3.75;;;;;;;;;;4983490;28;20041;-88
2022/07/20 02:59:18;;;;;;;7.28;3.78;;;;;;;;;;4971818;28;20044;-88
2022/07/20 03:01:44;;;;;;;5.95;4.10;;;;;;;;;;4967290;28;20410;-88
2022/07/20 03:04:10;;;;;;;4.85;3.90;;;;;;;;;;4973703;28;20051;-87
2022/07/20 03:06:36;;;;;;;8.00;3.83;;;;;;;;;;4968904;28;20175;-88
2022/07/20 03:09:02;;;;;;;6.45;3.85;;;;;;;;;;4966360;28;20041;-87
2022/07/20 03:11:29;;;;;;;4.78;3.70;;;;;;;;;;4982502;28;20048;-88
2022/07/20 03:13:55;;;;;;;5.03;3.40;;;;;;;;;;4977652;28;20131;-87
2022/07/20 03:16:21;;;;;;;4.55;3.50;;;;;;;;;;4982127;28;20040;-88
2022/07/20 03:18:49;;;;;;;4.45;3.50;;;;;;;;;;4984439;28;20484;-88
2022/07/20 03:21:15;;;;;;;4.88;3.78;;;;;;;;;;4969578;28;20059;-87
2022/07/20 03:23:41;;;;;;;6.22;3.67;;;;;;;;;;4984784;28;20128;-88
2022/07/20 03:26:07;;;;;;;4.97;3.35;;;;;;;;;;4988443;28;21540;-87
2022/07/20 03:28:34;;;;;;;7.78;4.10;;;;;;;;;;4993511;28;20045;-87
2022/07/20 03:31:00;;;;;;;5.28;3.47;;;;;;;;;;4971646;28;20049;-87
2022/07/20 03:33:26;;;;;;;4.82;4.00;;;;;;;;;;4963469;28;20091;-88
2022/07/20 03:35:52;;;;;;;8.85;3.85;;;;;;;;;;4961113;28;20064;-86
2022/07/20 03:38:18;;;;;;;4.85;3.72;;;;;;;;;;4955772;28;20047;-87
2022/07/20 03:40:44;;;;;;;4.85;3.50;;;;;;;;;;4974360;28;20788;-87
2022/07/20 03:43:10;;;;;;;7.68;4.00;;;;;;;;;;4958433;28;20049;-87
2022/07/20 03:45:36;;;;;;;4.40;3.90;;;;;;;;;;4981046;28;20037;-87
2022/07/20 03:48:02;;;;;;;4.88;3.63;;;;;;;;;;4981776;28;22607;-87
2022/07/20 03:50:28;;;;;;;7.15;3.83;;;;;;;;;;4969290;28;20132;-78
2022/07/20 03:52:55;;;;;;;4.80;3.90;;;;;;;;;;4992146;28;20076;-78
2022/07/20 03:55:21;;;;;;;7.38;4.40;;;;;;;;;;5011774;28;20047;-79
2022/07/20 03:57:47;;;;;;;4.82;3.55;;;;;;;;;;4989300;28;20780;-78
2022/07/20 04:00:13;;;;;;;7.20;3.78;;;;;;;;;;4984802;28;20131;-78
2022/07/20 04:02:40;;;;;;;4.72;3.42;;;;;;;;;;4979902;28;20057;-78
2022/07/20 04:05:06;;;;;;;5.38;3.50;;;;;;;;;;4984636;28;22329;-79
2022/07/20 04:07:32;;;;;;;5.00;3.83;;;;;;;;;;4987762;28;20045;-79
2022/07/20 04:09:58;;;;;;;4.53;3.47;;;;;;;;;;4974251;28;20056;-79
2022/07/20 04:12:24;;;;;;;6.32;3.60;;;;;;;;;;4993474;28;20041;-79
2022/07/20 04:14:52;;;;;;;4.03;3.60;;;;;;;;;;5006612;28;20430;-79
2022/07/20 04:17:19;;;;;;;;;;;;;;;;;;4958790;28;20052;-79
2022/07/20 04:19:47;;;;;;;6.15;3.38;;;;;;;;;;4983319;28;19925;-79
2022/07/20 04:22:14;;;;;;;5.75;3.80;;;;;;;;;;4965629;28;20045;-79
2022/07/20 04:24:42;;;;;;;6.07;3.67;;;;;;;;;;4977582;28;20068;-79
2022/07/20 04:27:09;;;;;;;5.03;3.95;;;;;;;;;;4980864;28;20786;-79
2022/07/20 04:29:37;;;;;;;5.10;3.67;;;;;;;;;;5003252;28;20140;-78
2022/07/20 04:32:05;;;;;;;6.78;3.78;;;;;;;;;;4974375;28;20041;-78
2022/07/20 04:34:31;;;;;;;4.18;3.78;;;;;;;;;;4990152;28;20435;-79
2022/07/20 04:36:57;;;;;;;8.43;3.97;;;;;;;;;;4983330;28;20039;-79
2022/07/20 04:39:23;;;;;;;4.30;3.80;;;;;;;;;;4980766;28;20120;-79
2022/07/20 04:41:49;;;;;;;5.22;3.78;;;;;;;;;;4975088;28;20033;-79
2022/07/20 04:44:15;;;;;;;4.65;3.60;;;;;;;;;;4996825;28;20391;-79
2022/07/20 04:46:41;;;;;;;7.90;3.85;;;;;;;;;;4992004;28;20515;-79
2022/07/20 04:49:10;;;;;;;4.35;3.95;;;;;;;;;;4983783;28;20045;-79
2022/07/20 04:51:36;;;;;;;5.22;3.75;;;;;;;;;;4980886;28;20110;-79
2022/07/20 04:54:04;;;;;;;8.50;3.80;;;;;;;;;;4965648;28;20111;-79
2022/07/20 04:56:32;;;;;;;4.28;3.53;;;;;;;;;;5013901;28;20476;-78
2022/07/20 04:58:59;;;;;;;3.60;3.30;;;;;;;;;;4995660;28;20789;-77
2022/07/20 05:01:25;;;;;;;8.00;4.43;;;;;;;;;;5002281;28;20314;-78
2022/07/20 05:03:51;;;;;;;3.80;3.50;;;;;;;;;;4983865;28;20156;-78
2022/07/20 05:06:17;;;;;;;6.25;4.22;;;;;;;;;;4983136;28;20099;-77
2022/07/20 05:08:43;;;;;;;7.15;4.20;;;;;;;;;;4979649;28;23170;-78
2022/07/20 05:11:09;;;;;;;6.25;3.83;;;;;;;;;;4976988;28;20049;-77
2022/07/20 05:13:35;;;;;;;4.13;3.72;;;;;;;;;;4998028;28;20041;-77
2022/07/20 05:16:01;;;;;;;5.22;3.70;;;;;;;;;;5013456;28;20111;-77
2022/07/20 05:18:30;;;;;;;5.38;3.88;;;;;;;;;;4999188;28;20037;-81
2022/07/20 05:20:59;;;;;;;6.63;4.20;;;;;;;;;;5005089;28;20079;-81
2022/07/20 05:23:25;;;;;;;5.80;4.10;;;;;;;;;;4988187;28;20119;-81
2022/07/20 05:25:51;;;;;;;5.30;3.97;;;;;;;;;;4969019;28;20045;-86
2022/07/20 05:28:21;;;;;;;4.20;3.80;;;;;;;;;;4995110;28;20041;-81
2022/07/20 05:30:47;;;;;;;17.27;14.10;;;;;;;;;;4990225;28;20676;-81
2022/07/20 05:33:13;;;;;;;8.85;6.90;;;;;;;;;;4978238;28;20392;-81
2022/07/20 05:35:39;;;;;;;7.57;4.57;;;;;;;;;;5014970;28;20898;-81
2022/07/20 05:38:05;;;;;;;4.72;4.18;;;;;;;;;;4973793;28;20630;-81
2022/07/20 05:40:32;;;;;;;7.78;4.25;;;;;;;;;;5018107;28;20159;-81
2022/07/20 05:42:58;;;;;;;6.53;4.25;;;;;;;;;;4992170;28;20051;-81
2022/07/20 05:45:24;;;;;;;4.80;4.07;;;;;;;;;;4973130;28;20132;-80
2022/07/20 05:47:50;;;;;;;5.40;4.00;;;;;;;;;;4973006;28;20127;-80
2022/07/20 05:50:16;;;;;;;5.05;4.30;;;;;;;;;;4994713;28;20060;-80
2022/07/20 05:52:42;;;;;;;6.70;4.45;;;;;;;;;;4963593;28;20106;-81
2022/07/20 05:55:08;;;;;;;7.30;4.95;;;;;;;;;;4937566;28;21674;-80
2022/07/20 05:57:34;;;;;;;5.30;4.53;;;;;;;;;;4979683;28;20040;-81
2022/07/20 06:00:00;;;;;;;10.35;4.68;;;;;;;;;;4971229;28;21506;-81
2022/07/20 06:02:26;;;;;;;8.00;5.15;;;;;;;;;;4973532;28;20037;-81
2022/07/20 06:04:52;;;;;;;5.43;4.93;;;;;;;;;;4998520;28;20038;-86
2022/07/20 06:07:18;;;;;;;8.10;4.97;;;;;;;;;;4985012;28;20116;-86
2022/07/20 06:09:44;;;;;;;8.93;4.75;;;;;;;;;;4954585;28;20983;-85
2022/07/20 06:12:10;;;;;;;6.88;4.38;;;;;;;;;;4978783;28;21664;-86
2022/07/20 06:14:36;;;;;;;6.60;4.85;;;;;;;;;;4963432;28;20057;-86
2022/07/20 06:17:02;;;;;;;7.70;4.88;;;;;;;;;;4954709;28;20145;-86
2022/07/20 06:19:28;;;;;;;7.20;4.30;;;;;;;;;;4969716;28;20080;-85
2022/07/20 06:21:54;;;;;;;7.93;4.57;;;;;;;;;;4944708;28;20049;-86
2022/07/20 06:24:21;;;;;;;8.93;4.45;;;;;;;;;;4939420;28;20064;-86
2022/07/20 06:26:47;;;;;;;13.05;4.50;;;;;;;;;;4975855;28;20158;-86
2022/07/20 06:29:14;;;;;;;6.60;4.35;;;;;;;;;;4939729;28;20037;-86
2022/07/20 06:31:40;;;;;;;6.07;3.83;;;;;;;;;;4953674;28;20050;-86
2022/07/20 06:34:08;;;;;;;5.72;4.35;;;;;;;;;;4961774;28;20063;-86
2022/07/20 06:36:34;;;;;;;;;;;;;;;;;;4954563;28;20045;-86
2022/07/20 06:39:01;;;;;;;10.10;4.18;;;;;;;;;;4950524;28;19925;-86
2022/07/20 06:41:27;;;;;;;6.78;4.03;;;;;;;;;;4930454;28;20046;-86
2022/07/20 06:43:53;;;;;;;5.80;4.25;;;;;;;;;;4953685;28;20056;-86
2022/07/20 06:46:19;;;;;;;8.68;4.25;;;;;;;;;;4945800;28;20140;-86
2022/07/20 06:48:45;;;;;;;7.47;4.40;;;;;;;;;;4942747;28;20436;-86
2022/07/20 06:51:11;;;;;;;6.90;4.18;;;;;;;;;;4971200;28;21708;-86
2022/07/20 06:53:37;;;;;;;8.25;3.60;;;;;;;;;;4985089;28;20049;-86
2022/07/20 06:56:03;;;;;;;7.38;4.18;;;;;;;;;;4976230;28;20490;-86
2022/07/20 06:58:29;;;;;;;5.22;4.63;;;;;;;;;;4976055;28;20037;-86
2022/07/20 07:00:55;;;;;;;7.93;4.25;;;;;;;;;;4957116;28;20775;-86
2022/07/20 07:03:21;;;;;;;5.70;4.13;;;;;;;;;;4983532;28;20072;-86
2022/07/20 07:05:47;;;;;;;9.55;4.25;;;;;;;;;;4971188;28;20127;-86
2022/07/20 07:08:13;;;;;;;10.98;4.35;;;;;;;;;;4986840;28;20091;-86
2022/07/20 07:10:39;;;;;;;9.82;4.15;;;;;;;;;;4969056;28;20141;-86
2022/07/20 07:13:06;;;;;;;5.07;4.07;;;;;;;;;;4979720;28;20095;-86
2022/07/20 07:15:32;;;;;;;9.18;4.47;;;;;;;;;;4965862;28;20142;-86
2022/07/20 07:17:58;;;;;;;4.53;4.13;;;;;;;;;;4971949;28;20091;-86
2022/07/20 07:20:24;;;;;;;8.57;4.00;;;;;;;;;;4992176;28;20041;-86
2022/07/20 07:22:53;;;;;;;7.72;4.20;;;;;;;;;;4986325;28;20051;-86
2022/07/20 07:25:19;;;;;;;4.95;4.35;;;;;;;;;;4980654;28;21290;-86
2022/07/20 07:27:45;;;;;;;6.75;4.13;;;;;;;;;;4977151;28;20391;-85
2022/07/20 07:30:11;;;;;;;8.05;4.25;;;;;;;;;;4970889;28;20052;-86
2022/07/20 07:32:37;;;;;;;7.57;4.78;;;;;;;;;;4975691;28;20070;-86
2022/07/20 07:35:04;;;;;;;4.93;4.38;;;;;;;;;;4960412;28;20053;-87
2022/07/20 07:37:30;;;;;;;7.88;4.78;;;;;;;;;;4972540;28;20036;-86
2022/07/20 07:39:56;;;;;;;7.85;5.18;;;;;;;;;;4982656;28;20398;-86
2022/07/20 07:42:22;;;;;;;9.48;5.15;;;;;;;;;;4980284;28;20044;-86
2022/07/20 07:44:49;;;;;;;8.80;5.00;;;;;;;;;;4962562;28;20072;-86
2022/07/20 07:47:15;;;;;;;6.47;4.60;;;;;;;;;;4988708;28;20490;-86
2022/07/20 07:49:41;;;;;;;7.53;5.00;;;;;;;;;;4980294;28;20087;-86
2022/07/20 07:52:07;;;;;;;9.27;4.72;;;;;;;;;;4978854;28;20057;-86
2022/07/20 07:54:33;;;;;;;7.15;4.88;;;;;;;;;;4978503;28;20057;-87
2022/07/20 07:56:59;;;;;;;11.90;6.15;;;;;;;;;;4965299;28;20462;-86
2022/07/20 07:59:25;;;;;;;7.30;5.70;;;;;;;;;;5015156;28;20041;-87
2022/07/20 08:01:51;;;;;;;10.35;5.47;;;;;;;;;;4991889;28;20375;-86
2022/07/20 08:04:18;;;;;;;7.78;5.47;;;;;;;;;;4971497;28;20037;-86
2022/07/20 08:06:44;;;;;;;14.45;5.90;;;;;;;;;;5012625;28;20051;-86
2022/07/20 08:09:10;;;;;;;11.50;5.88;;;;;;;;;;5004961;28;20068;-87
2022/07/20 08:11:36;;;;;;;14.30;6.38;;;;;;;;;;4993957;28;20167;-86
2022/07/20 08:14:02;;;;;;;11.80;6.40;;;;;;;;;;4991028;28;20182;-86
2022/07/20 08:16:29;;;;;;;11.82;6.93;;;;;;;;;;4997043;28;20484;-86
2022/07/20 08:18:55;;;;;;;11.68;6.68;;;;;;;;;;5012175;28;20395;-86
2022/07/20 08:21:21;;;;;;;13.60;7.30;;;;;;;;;;4970062;28;20045;-86
2022/07/20 08:23:47;;;;;;;9.43;8.18;;;;;;;;;;4963610;28;20112;-86
2022/07/20 08:26:13;;;;;;;9.23;7.30;;;;;;;;;;4992519;28;20049;-87
2022/07/20 08:28:40;;;;;;;12.70;8.40;;;;;;;;;;4990405;28;20052;-86
2022/07/20 08:31:06;;;;;;;12.63;9.23;;;;;;;;;;5006611;28;21489;-87
2022/07/20 08:33:32;;;;;;;12.90;10.57;;;;;;;;;;4996740;28;20045;-86
2022/07/20 08:35:58;;;;;;;15.30;9.70;;;;;;;;;;5012252;28;20052;-86
2022/07/20 08:38:24;;;;;;;11.05;8.93;;;;;;;;;;4968304;28;20515;-86
2022/07/20 08:40:50;;;;;;;12.35;10.68;;;;;;;;;;5010746;28;20051;-87
2022/07/20 08:43:17;;;;;;;11.57;10.35;;;;;;;;;;5017662;28;20045;-86
2022/07/20 08:45:44;;;;;;;15.85;13.13;;;;;;;;;;4981822;28;20128;-86
2022/07/20 08:48:11;;;;;;;18.87;15.03;;;;;;;;;;4963239;28;20044;-86
2022/07/20 08:50:38;;;;;;;26.00;14.70;;;;;;;;;;5011206;28;20061;-86
2022/07/20 08:53:04;;;;;;;20.58;15.07;;;;;;;;;;4974781;28;20101;-87
2022/07/20 08:55:30;;;;;;;15.70;14.27;;;;;;;;;;4966656;28;20033;-87
2022/07/20 08:57:56;;;;;;;17.92;16.08;;;;;;;;;;4982469;28;20676;-87
2022/07/20 09:00:22;;;;;;;20.05;16.25;;;;;;;;;;5005497;28;20046;-87
2022/07/20 09:02:49;;;;;;;22.40;16.75;;;;;;;;;;4997610;28;20037;-87
2022/07/20 09:05:15;;;;;;;19.98;16.80;;;;;;;;;;4985777;28;20097;-85
2022/07/20 09:07:42;;;;;;;19.38;16.73;;;;;;;;;;4985769;28;20033;-86
2022/07/20 09:10:10;;;;;;;20.07;16.93;;;;;;;;;;5002402;28;20054;-87
2022/07/20 09:12:55;;;;;;;20.17;16.20;;;;;;;;;;4987559;28;20456;-86
2022/07/20 09:15:26;;;;;;;16.83;15.15;;;;;;;;;;4988599;28;20144;-86
2022/07/20 09:18:06;;;;;;;20.80;15.90;;;;;;;;;;4981720;28;20097;-87
2022/07/20 09:20:33;;;;;;;20.27;17.30;;;;;;;;;;4988932;28;20041;-88
2022/07/20 09:23:03;;;;;;;24.67;17.60;;;;;;;;;;4968521;28;20721;-87
2022/07/20 09:25:29;;;;;;;21.48;17.85;;;;;;;;;;4970769;28;20037;-87
2022/07/20 09:27:56;;;;;;;23.80;19.17;;;;;;;;;;4998890;28;20468;-87
2022/07/20 09:30:22;;;;;;;23.45;18.33;;;;;;;;;;4962164;28;20077;-88
2022/07/20 09:32:51;;;;;;;20.38;17.52;;;;;;;;;;4988678;28;20092;-87
2022/07/20 09:35:17;;;;;;;25.58;19.05;;;;;;;;;;4985245;28;20073;-88
2022/07/20 09:37:43;;;;;;;23.75;18.63;;;;;;;;;;4981916;28;20038;-87
2022/07/20 09:40:09;;;;;;;22.75;18.55;;;;;;;;;;4997089;28;21895;-87
2022/07/20 09:42:36;;;;;;;24.20;19.35;;;;;;;;;;4976470;28;20053;-88
2022/07/20 09:45:38;;;;;;;22.48;19.42;;;;;;;;;;4954845;28;20042;-87
2022/07/20 09:48:04;;;;;;;22.17;19.52;;;;;;;;;;4901007;29;20092;-87
2022/07/20 09:50:34;;;;;;;22.13;19.77;;;;;;;;;;4944370;28;20812;-88
2022/07/20 09:53:00;;;;;;;24.00;19.77;;;;;;;;;;4991512;28;20399;-87
2022/07/20 09:55:26;;;;;;;22.33;19.83;;;;;;;;;;4996060;28;20047;-88
2022/07/20 09:57:52;;;;;;;23.27;20.90;;;;;;;;;;4991832;28;20045;-88
2022/07/20 10:00:19;;;;;;;26.58;21.55;;;;;;;;;;4976975;28;20078;-87
2022/07/20 10:02:53;;;;;;;23.55;20.02;;;;;;;;;;4999780;28;20075;-87
2022/07/20 10:05:19;;;;;;;22.48;20.17;;;;;;;;;;4993879;28;20045;-87
2022/07/20 10:07:46;;;;;;;27.05;21.17;;;;;;;;;;4983792;28;20688;-87
2022/07/20 10:10:12;;;;;;;21.27;18.60;;;;;;;;;;4976770;28;20102;-88
2022/07/20 10:12:38;;;;;;;20.67;18.67;;;;;;;;;;4997650;28;20041;-88
2022/07/20 10:15:05;;;;;;;24.65;20.45;;;;;;;;;;4976167;28;20033;-88
2022/07/20 10:17:32;;;;;;;21.88;19.52;;;;;;;;;;4967147;28;20049;-87
2022/07/20 10:19:58;;;;;;;22.23;18.77;;;;;;;;;;4984894;28;20041;-87
2022/07/20 10:22:24;;;;;;;19.80;17.55;;;;;;;;;;4999298;28;20037;-88
2022/07/20 10:25:09;;;;;;;19.08;17.17;;;;;;;;;;4986175;28;20037;-87
2022/07/20 10:27:36;;;;;;;19.80;17.05;;;;;;;;;;5005621;28;20032;-88
2022/07/20 10:30:15;;;;;;;20.88;15.48;;;;;;;;;;5014888;28;20768;-87
2022/07/20 10:32:49;;;;;;;19.55;16.55;;;;;;;;;;5001826;28;20041;-88
2022/07/20 10:35:25;;;;;;;18.83;16.83;;;;;;;;;;4981646;28;20048;-88
2022/07/20 10:37:52;;;;;;;19.17;16.65;;;;;;;;;;4982011;28;20048;-88
2022/07/20 10:40:19;;;;;;;17.48;15.15;;;;;;;;;;4988098;28;20048;-88
2022/07/20 10:42:51;;;;;;;17.35;14.18;;;;;;;;;;4988822;28;20496;-89
2022/07/20 10:45:19;;;;;;;15.90;14.38;;;;;;;;;;5010722;28;20049;-87
2022/07/20 10:47:48;;;;;;;15.85;14.02;;;;;;;;;;5002736;28;20059;-88
2022/07/20 10:50:33;;;;;;;16.05;13.13;;;;;;;;;;5012272;28;20531;-87
2022/07/20 10:53:12;;;;;;;15.40;13.00;;;;;;;;;;4980078;28;20052;-88
2022/07/20 10:55:38;;;;;;;17.00;13.20;;;;;;;;;;4978458;28;20033;-87
2022/07/20 10:58:11;;;;;;;15.27;13.50;;;;;;;;;;4988254;28;20037;-88
2022/07/20 11:01:00;;;;;;;14.95;13.13;;;;;;;;;;4983952;28;20495;-88
2022/07/20 11:03:29;;;;;;;14.95;13.30;;;;;;;;;;4979679;28;20503;-88
2022/07/20 11:05:59;;;;;;;16.35;13.27;;;;;;;;;;4973689;28;20049;-87
2022/07/20 11:08:26;;;;;;;14.00;12.50;;;;;;;;;;4967879;28;20048;-88
2022/07/20 11:10:55;;;;;;;15.10;11.80;;;;;;;;;;4962410;28;20075;-88
2022/07/20 11:13:21;;;;;;;21.27;9.82;;;;;;;;;;4979330;28;20495;-87
2022/07/20 11:15:48;;;;;;;11.55;10.07;;;;;;;;;;4974895;28;20042;-88
2022/07/20 11:18:18;;;;;;;12.60;9.32;;;;;;;;;;4972460;28;20501;-87
2022/07/20 11:20:48;;;;;;;10.68;9.25;;;;;;;;;;4974295;28;20052;-88
2022/07/20 11:23:15;;;;;;;10.60;9.15;;;;;;;;;;4963664;28;20430;-88
2022/07/20 11:26:00;;;;;;;11.37;9.73;;;;;;;;;;4976074;28;21640;-87
2022/07/20 11:28:29;;;;;;;10.48;9.48;;;;;;;;;;4962378;28;20734;-88
2022/07/20 11:30:55;;;;;;;13.25;10.52;;;;;;;;;;4964710;28;20641;-87
2022/07/20 11:33:29;;;;;;;12.80;10.27;;;;;;;;;;4977746;28;20052;-88
2022/07/20 11:35:56;;;;;;;11.52;10.43;;;;;;;;;;4959046;28;20143;-87
2022/07/20 11:38:22;;;;;;;13.15;10.82;;;;;;;;;;4963225;28;20403;-87
2022/07/20 11:40:58;;;;;;;11.88;10.68;;;;;;;;;;4975171;28;20665;-87
2022/07/20 11:43:25;;;;;;;11.60;10.43;;;;;;;;;;4955787;28;20057;-88
2022/07/20 11:45:52;;;;;;;11.30;8.80;;;;;;;;;;4977096;28;20040;-87
2022/07/20 11:48:20;;;;;;;;;;;;;;;;;;5004769;28;20132;-87
2022/07/20 11:50:52;;;;;;;10.23;8.43;;;;;;;;;;5001231;28;19995;-88
2022/07/20 11:53:27;;;;;;;10.10;8.65;;;;;;;;;;4998703;28;20468;-87
2022/07/20 11:55:57;;;;;;;9.15;8.23;;;;;;;;;;4993758;28;20442;-87
2022/07/20 11:58:29;;;;;;;9.82;8.82;;;;;;;;;;4983584;28;20037;-88
2022/07/20 12:00:58;;;;;;;11.60;8.73;;;;;;;;;;4985964;28;20435;-88
2022/07/20 12:03:25;;;;;;;9.63;8.38;;;;;;;;;;5012582;28;20061;-88
2022/07/20 12:05:54;;;;;;;13.40;8.70;;;;;;;;;;4992586;28;20111;-88
2022/07/20 12:08:24;;;;;;;10.38;8.90;;;;;;;;;;4974089;28;20057;-88
2022/07/20 12:10:50;;;;;;;11.60;8.98;;;;;;;;;;4987275;28;20033;-88
2022/07/20 12:13:17;;;;;;;10.73;9.23;;;;;;;;;;4992710;28;20132;-88
2022/07/20 12:15:56;;;;;;;9.50;8.45;;;;;;;;;;4987744;28;20458;-88
2022/07/20 12:18:36;;;;;;;11.07;7.97;;;;;;;;;;4984252;28;20528;-88
2022/07/20 12:21:03;;;;;;;10.57;8.75;;;;;;;;;;4994366;28;20389;-88
2022/07/20 12:23:29;;;;;;;10.30;8.15;;;;;;;;;;4998882;28;20801;-88
2022/07/20 12:25:58;;;;;;;8.52;7.63;;;;;;;;;;4985246;28;20055;-88
2022/07/20 12:28:28;;;;;;;11.10;7.88;;;;;;;;;;4982739;28;20037;-88
2022/07/20 12:30:54;;;;;;;10.15;7.85;;;;;;;;;;4983005;28;20044;-88
2022/07/20 12:33:20;;;;;;;10.23;7.22;;;;;;;;;;5009539;28;20065;-88
2022/07/20 12:35:47;;;;;;;8.82;6.93;;;;;;;;;;4977694;28;20124;-86
2022/07/20 12:38:14;;;;;;;9.05;7.10;;;;;;;;;;4986168;28;20040;-87
2022/07/20 12:40:41;;;;;;;9.50;6.53;;;;;;;;;;5022105;28;20083;-87
2022/07/20 12:43:26;;;;;;;8.20;7.40;;;;;;;;;;4981023;28;20056;-88
2022/07/20 12:45:52;;;;;;;9.77;7.25;;;;;;;;;;5010265;28;20037;-87
2022/07/20 12:48:18;;;;;;;8.25;7.28;;;;;;;;;;5000205;28;20048;-87
2022/07/20 12:50:44;;;;;;;8.38;6.82;;;;;;;;;;4975957;28;20455;-87
2022/07/20 12:53:10;;;;;;;7.55;6.70;;;;;;;;;;4969279;28;20551;-87
2022/07/20 12:55:36;;;;;;;9.18;7.07;;;;;;;;;;4972918;28;20060;-87
2022/07/20 12:58:03;;;;;;;8.15;7.35;;;;;;;;;;4971492;28;20046;-88
2022/07/20 13:00:29;;;;;;;8.57;6.85;;;;;;;;;;4971978;28;20049;-89
2022/07/20 13:02:55;;;;;;;9.93;7.35;;;;;;;;;;4976818;28;20064;-88
2022/07/20 13:05:21;;;;;;;10.70;8.32;;;;;;;;;;4977356;28;20045;-87
2022/07/20 13:07:47;;;;;;;9.27;8.10;;;;;;;;;;4957831;28;20049;-87
2022/07/20 13:10:14;;;;;;;9.27;7.68;;;;;;;;;;4983481;28;20139;-88
2022/07/20 13:12:40;;;;;;;10.07;7.60;;;;;;;;;;4953789;28;20057;-87
2022/07/20 13:15:06;;;;;;;8.45;7.57;;;;;;;;;;4979992;28;20099;-87
2022/07/20 13:17:36;;;;;;;10.15;6.85;;;;;;;;;;4965109;28;20037;-87
2022/07/20 13:20:02;;;;;;;9.48;6.75;;;;;;;;;;4961060;28;20050;-87
2022/07/20 13:22:29;;;;;;;9.82;6.40;;;;;;;;;;4980394;28;20045;-87
2022/07/20 13:25:01;;;;;;;7.93;6.18;;;;;;;;;;4959071;28;20073;-86
2022/07/20 13:27:27;;;;;;;9.82;6.78;;;;;;;;;;4950829;28;20107;-86
2022/07/20 13:29:53;;;;;;;8.90;6.30;;;;;;;;;;4941816;28;20507;-87
2022/07/20 13:32:19;;;;;;;8.35;6.20;;;;;;;;;;4956257;28;20040;-86
2022/07/20 13:34:45;;;;;;;8.07;6.53;;;;;;;;;;4947148;28;20045;-87
2022/07/20 13:37:11;;;;;;;9.07;6.45;;;;;;;;;;4961666;28;20397;-86
2022/07/20 13:39:37;;;;;;;8.68;6.15;;;;;;;;;;4978417;28;20503;-87
2022/07/20 13:42:06;;;;;;;9.43;6.80;;;;;;;;;;4971889;28;20045;-86
2022/07/20 13:44:32;;;;;;;7.38;6.15;;;;;;;;;;4993023;28;20456;-86
2022/07/20 13:47:01;;;;;;;7.28;6.43;;;;;;;;;;4935128;28;20136;-86
2022/07/20 13:49:27;;;;;;;6.82;6.22;;;;;;;;;;4957396;28;20660;-86
2022/07/20 13:51:53;;;;;;;8.23;6.53;;;;;;;;;;5002399;28;20058;-86
2022/07/20 13:54:20;;;;;;;9.77;6.53;;;;;;;;;;4994255;28;20119;-86
2022/07/20 13:56:46;;;;;;;7.40;6.70;;;;;;;;;;4972326;28;20530;-86
2022/07/20 13:59:12;;;;;;;9.48;6.93;;;;;;;;;;4979499;28;20071;-86
2022/07/20 14:01:44;;;;;;;8.82;6.75;;;;;;;;;;4998034;28;20091;-86
2022/07/20 14:04:11;;;;;;;7.88;6.63;;;;;;;;;;4982269;28;20048;-86
2022/07/20 14:06:37;;;;;;;8.00;7.20;;;;;;;;;;4992272;28;22175;-86
2022/07/20 14:09:03;;;;;;;9.18;7.45;;;;;;;;;;4987364;28;20201;-86
2022/07/20 14:11:30;;;;;;;;;;;;;;;;;;5007800;28;20493;-87
2022/07/20 14:13:57;;;;;;;7.53;6.83;;;;;;;;;;4996457;28;20363;-86
2022/07/20 14:16:23;;;;;;;8.02;6.90;;;;;;;;;;5022602;28;20084;-86
2022/07/20 14:18:49;;;;;;;7.55;6.70;;;;;;;;;;5001481;28;20418;-87
2022/07/20 14:21:15;;;;;;;7.88;6.68;;;;;;;;;;4999308;28;20038;-86
2022/07/20 14:23:44;;;;;;;6.13;5.40;;;;;;;;;;4999952;28;20048;-87
2022/07/20 14:26:11;;;;;;;5.35;4.85;;;;;;;;;;4959283;28;20044;-87
2022/07/20 14:28:37;;;;;;;5.78;5.18;;;;;;;;;;5001479;28;20088;-87
2022/07/20 14:31:04;;;;;;;8.90;5.80;;;;;;;;;;4993086;28;20076;-87
2022/07/20 14:33:31;;;;;;;;;;;;;;;;;;4984812;28;20434;-87
2022/07/20 14:35:57;;;;;;;7.53;6.10;;;;;;;;;;4997093;28;19944;-87
2022/07/20 14:38:23;;;;;;;6.68;5.00;;;;;;;;;;5001797;28;20227;-87
2022/07/20 14:40:49;;;;;;;6.53;5.25;;;;;;;;;;4999938;28;20041;-87
2022/07/20 14:43:16;;;;;;;7.60;5.40;;;;;;;;;;5009441;28;20045;-87
2022/07/20 14:45:42;;;;;;;6.22;5.38;;;;;;;;;;4972358;28;20080;-87
2022/07/20 14:48:08;;;;;;;5.70;4.85;;;;;;;;;;4983694;28;21913;-87
2022/07/20 14:50:34;;;;;;;7.03;4.97;;;;;;;;;;4964860;28;20064;-86
2022/07/20 14:53:03;;;;;;;6.75;4.50;;;;;;;;;;4960919;28;20045;-87
2022/07/20 14:55:29;;;;;;;4.72;4.13;;;;;;;;;;4997965;28;20045;-87
2022/07/20 14:57:55;;;;;;;5.07;4.57;;;;;;;;;;4975700;28;20357;-86
2022/07/20 15:00:21;;;;;;;8.00;4.30;;;;;;;;;;4989796;28;20442;-87
2022/07/20 15:02:48;;;;;;;5.15;4.47;;;;;;;;;;4984204;28;20049;-87
2022/07/20 15:05:14;;;;;;;6.95;4.88;;;;;;;;;;4977174;28;20095;-87
2022/07/20 15:07:40;;;;;;;5.70;4.50;;;;;;;;;;4981160;28;20179;-87
2022/07/20 15:10:06;;;;;;;5.38;4.88;;;;;;;;;;4966840;28;20045;-87
2022/07/20 15:12:32;;;;;;;7.43;5.03;;;;;;;;;;5011561;28;20481;-87
2022/07/20 15:15:00;;;;;;;6.88;4.82;;;;;;;;;;4981604;28;20310;-87